createdAt,value
2022-12-29T00:00:01.381Z,0.68
2022-12-29T00:02:29.597Z,0.60
2022-12-29T00:04:57.536Z,1.05
2022-12-29T00:07:25.582Z,0.70
2022-12-29T00:09:53.628Z,0.65
2022-12-29T00:12:21.502Z,1.25
2022-12-29T00:15:08.676Z,0.60
2022-12-29T00:17:36.840Z,0.80
2022-12-29T00:20:23.192Z,0.60
2022-12-29T00:23:09.863Z,0.70
2022-12-29T00:25:56.262Z,0.60
2022-12-29T00:28:41.621Z,0.80
2022-12-29T00:31:31.597Z,0.60
2022-12-29T00:34:17.788Z,0.50
2022-12-29T00:36:46.592Z,0.80
2022-12-29T00:39:34.709Z,0.60
2022-12-29T00:42:22.946Z,0.60
2022-12-29T00:44:51.026Z,0.57
2022-12-29T00:47:20.384Z,0.70
2022-12-29T00:49:47.437Z,0.50
2022-12-29T00:52:16.118Z,0.55
2022-12-29T00:54:46.889Z,0.30
2022-12-29T00:57:14.998Z,0.60
2022-12-29T00:59:44.167Z,0.40
2022-12-29T01:02:12.694Z,0.50
2022-12-29T01:04:42.387Z,0.70
2022-12-29T01:07:10.397Z,0.50
2022-12-29T01:09:56.541Z,0.52
2022-12-29T01:12:38.431Z,0.40
2022-12-29T01:15:07.769Z,0.30
2022-12-29T01:17:35.864Z,0.55
2022-12-29T01:20:05.973Z,0.60
2022-12-29T01:22:33.973Z,0.57
2022-12-29T01:25:01.913Z,0.50
2022-12-29T01:27:29.903Z,0.60
2022-12-29T01:29:57.798Z,0.50
2022-12-29T01:32:26.010Z,0.40
2022-12-29T01:34:53.896Z,0.60
2022-12-29T01:37:23.704Z,0.43
2022-12-29T01:39:51.695Z,0.65
2022-12-29T01:42:21.905Z,0.52
2022-12-29T01:44:53.389Z,0.60
2022-12-29T01:47:28.578Z,0.50
2022-12-29T01:49:59.247Z,0.50
2022-12-29T01:52:32.198Z,0.50
2022-12-29T01:55:01.702Z,0.60
2022-12-29T01:57:33.810Z,0.55
2022-12-29T02:00:05.744Z,0.60
2022-12-29T02:02:42.486Z,0.60
2022-12-29T02:05:16.126Z,0.60
2022-12-29T02:07:50.763Z,0.60
2022-12-29T02:10:21.393Z,0.70
2022-12-29T02:12:50.085Z,0.60
2022-12-29T02:15:19.506Z,0.60
2022-12-29T02:18:02.527Z,0.80
2022-12-29T02:21:06.228Z,0.70
2022-12-29T02:24:10.502Z,0.65
2022-12-29T02:26:56.238Z,0.70
2022-12-29T02:30:00.550Z,0.65
2022-12-29T02:32:38.824Z,0.80
2022-12-29T02:35:16.501Z,0.60
2022-12-29T02:37:57.047Z,0.60
2022-12-29T02:40:39.645Z,0.70
2022-12-29T02:43:20.262Z,0.77
2022-12-29T02:45:59.824Z,0.75
2022-12-29T02:48:37.771Z,0.70
2022-12-29T02:51:12.934Z,0.73
2022-12-29T02:53:58.860Z,0.60
2022-12-29T02:56:27.396Z,0.68
2022-12-29T02:58:55.392Z,0.75
2022-12-29T03:01:39.430Z,0.63
2022-12-29T03:04:33.425Z,0.60
2022-12-29T03:07:14.363Z,0.52
2022-12-29T03:09:54.787Z,0.55
2022-12-29T03:12:49.421Z,0.52
2022-12-29T03:15:41.001Z,0.60
2022-12-29T03:18:16.879Z,0.50
2022-12-29T03:20:53.121Z,0.63
2022-12-29T03:23:22.955Z,0.55
2022-12-29T03:25:55.814Z,0.50
2022-12-29T03:28:27.848Z,0.75
2022-12-29T03:30:57.402Z,0.70
2022-12-29T03:33:29.666Z,0.68
2022-12-29T03:36:05.143Z,0.75
2022-12-29T03:38:39.349Z,0.80
2022-12-29T03:41:13.857Z,0.70
2022-12-29T03:43:42.226Z,0.70
2022-12-29T03:46:11.196Z,0.75
2022-12-29T03:48:40.669Z,0.80
2022-12-29T03:51:12.253Z,0.90
2022-12-29T03:53:40.649Z,1.00
2022-12-29T03:56:09.688Z,0.82
2022-12-29T03:58:37.710Z,0.90
2022-12-29T04:01:10.489Z,0.90
2022-12-29T04:03:40.514Z,0.73
2022-12-29T04:06:09.694Z,1.08
2022-12-29T04:08:45.834Z,1.10
2022-12-29T04:11:14.430Z,0.90
2022-12-29T04:13:43.571Z,0.90
2022-12-29T04:16:15.536Z,1.20
2022-12-29T04:18:43.775Z,1.05
2022-12-29T04:21:11.743Z,0.90
2022-12-29T04:23:42.449Z,0.80
2022-12-29T04:26:13.049Z,1.00
2022-12-29T04:28:52.992Z,0.77
2022-12-29T04:31:43.902Z,1.38
2022-12-29T04:34:12.590Z,1.00
2022-12-29T04:36:41.155Z,0.80
2022-12-29T04:39:09.795Z,0.80
2022-12-29T04:41:41.386Z,1.00
2022-12-29T04:44:14.058Z,0.90
2022-12-29T04:46:59.713Z,0.70
2022-12-29T04:49:50.854Z,0.77
2022-12-29T04:52:37.461Z,0.77
2022-12-29T04:55:06.699Z,0.60
2022-12-29T04:57:37.085Z,0.73
2022-12-29T05:00:06.377Z,0.73
2022-12-29T05:02:37.505Z,0.75
2022-12-29T05:05:06.679Z,0.60
2022-12-29T05:07:37.134Z,0.40
2022-12-29T05:10:06.307Z,0.57
2022-12-29T05:12:39.075Z,0.60
2022-12-29T05:15:11.006Z,0.50
2022-12-29T05:17:39.764Z,0.60
2022-12-29T05:20:10.182Z,0.50
2022-12-29T05:22:38.996Z,0.60
2022-12-29T05:25:08.352Z,0.55
2022-12-29T05:27:48.890Z,0.70
2022-12-29T05:30:26.216Z,0.50
2022-12-29T05:32:54.752Z,0.65
2022-12-29T05:35:22.715Z,0.60
2022-12-29T05:37:50.791Z,0.88
2022-12-29T05:40:19.050Z,0.60
2022-12-29T05:42:48.377Z,0.40
2022-12-29T05:45:34.802Z,0.60
2022-12-29T05:48:16.374Z,0.60
2022-12-29T05:51:02.672Z,0.55
2022-12-29T05:53:48.694Z,0.60
2022-12-29T05:56:17.608Z,0.60
2022-12-29T05:58:49.535Z,0.55
2022-12-29T06:01:17.825Z,0.70
2022-12-29T06:03:48.576Z,0.77
2022-12-29T06:06:17.708Z,0.60
2022-12-29T06:08:45.945Z,0.60
2022-12-29T06:11:15.262Z,0.55
2022-12-29T06:13:51.895Z,0.73
2022-12-29T06:16:20.613Z,0.68
2022-12-29T06:18:50.449Z,0.50
2022-12-29T06:21:18.501Z,0.50
2022-12-29T06:23:48.212Z,0.60
2022-12-29T06:26:16.215Z,0.68
2022-12-29T06:28:44.766Z,0.45
2022-12-29T06:31:14.306Z,0.50
2022-12-29T06:33:42.511Z,0.70
2022-12-29T06:36:11.663Z,0.55
2022-12-29T06:38:39.740Z,0.50
2022-12-29T06:41:07.674Z,0.47
2022-12-29T06:43:58.177Z,0.80
2022-12-29T06:46:39.422Z,0.70
2022-12-29T06:49:07.400Z,0.60
2022-12-29T06:51:35.385Z,0.55
2022-12-29T06:54:03.542Z,0.80
2022-12-29T06:56:31.488Z,0.77
2022-12-29T06:59:01.091Z,0.60
2022-12-29T07:01:29.274Z,0.50
2022-12-29T07:03:58.722Z,0.77
2022-12-29T07:06:26.629Z,0.60
2022-12-29T07:08:56.179Z,0.65
2022-12-29T07:11:24.293Z,0.75
2022-12-29T07:13:52.332Z,0.65
2022-12-29T07:16:21.156Z,0.60
2022-12-29T07:18:49.270Z,0.60
2022-12-29T07:21:18.584Z,0.50
2022-12-29T07:23:46.620Z,0.55
2022-12-29T07:26:18.667Z,0.63
2022-12-29T07:28:46.925Z,0.45
2022-12-29T07:31:17.238Z,0.65
2022-12-29T07:33:45.763Z,0.52
2022-12-29T07:36:14.872Z,0.60
2022-12-29T07:38:44.664Z,0.90
2022-12-29T07:41:12.687Z,0.80
2022-12-29T07:43:40.831Z,0.73
2022-12-29T07:46:53.986Z,0.80
2022-12-29T07:49:13.989Z,0.90
2022-12-29T07:51:41.858Z,0.85
2022-12-29T07:54:13.128Z,0.90
2022-12-29T07:56:41.418Z,0.90
2022-12-29T07:59:09.370Z,0.60
2022-12-29T08:01:37.917Z,0.80
2022-12-29T08:04:06.296Z,0.98
2022-12-29T08:06:34.408Z,0.70
2022-12-29T08:09:09.834Z,0.70
2022-12-29T08:11:43.926Z,0.70
2022-12-29T08:14:12.218Z,0.80
2022-12-29T08:16:40.215Z,0.80
2022-12-29T08:19:08.241Z,0.98
2022-12-29T08:21:36.267Z,0.77
2022-12-29T08:24:04.599Z,0.90
2022-12-29T08:26:32.563Z,0.80
2022-12-29T08:29:01.922Z,1.13
2022-12-29T08:31:30.023Z,0.82
2022-12-29T08:33:58.097Z,0.93
2022-12-29T08:36:26.108Z,0.77
2022-12-29T08:38:54.319Z,1.10
2022-12-29T08:41:22.264Z,0.90
2022-12-29T08:43:52.115Z,1.00
2022-12-29T08:46:21.602Z,0.75
2022-12-29T08:48:49.569Z,0.70
2022-12-29T08:51:21.458Z,0.70
2022-12-29T08:53:52.684Z,0.80
2022-12-29T08:56:20.768Z,0.60
2022-12-29T08:58:52.456Z,0.80
2022-12-29T09:01:23.744Z,0.65
2022-12-29T09:04:14.441Z,0.95
2022-12-29T09:06:41.010Z,0.70
2022-12-29T09:09:09.502Z,0.70
2022-12-29T09:11:37.596Z,0.50
2022-12-29T09:14:05.686Z,0.68
2022-12-29T09:16:35.975Z,0.70
2022-12-29T09:19:04.706Z,0.52
2022-12-29T09:21:32.958Z,0.50
2022-12-29T09:24:00.887Z,0.40
2022-12-29T09:26:28.895Z,0.60
2022-12-29T09:28:57.854Z,0.70
2022-12-29T09:31:26.174Z,0.47
2022-12-29T09:33:55.640Z,0.50
2022-12-29T09:36:23.655Z,0.40
2022-12-29T09:38:52.139Z,0.60
2022-12-29T09:41:27.458Z,0.52
2022-12-29T09:44:14.472Z,0.40
2022-12-29T09:46:46.560Z,0.43
2022-12-29T09:49:24.750Z,0.40
2022-12-29T09:51:55.706Z,0.43
2022-12-29T09:54:36.914Z,0.55
2022-12-29T09:57:05.270Z,0.40
2022-12-29T09:59:42.111Z,0.45
2022-12-29T10:02:25.887Z,0.30
2022-12-29T10:04:55.402Z,0.40
2022-12-29T10:07:41.932Z,0.35
2022-12-29T10:10:22.480Z,0.40
2022-12-29T10:13:02.830Z,0.30
2022-12-29T10:15:48.220Z,0.30
2022-12-29T10:18:30.961Z,0.40
2022-12-29T10:21:06.361Z,0.40
2022-12-29T10:23:38.060Z,0.40
2022-12-29T10:26:11.999Z,0.43
2022-12-29T10:28:43.281Z,0.40
2022-12-29T10:31:16.799Z,0.30
2022-12-29T10:33:45.626Z,0.50
2022-12-29T10:36:23.713Z,0.40
2022-12-29T10:39:01.145Z,0.50
2022-12-29T10:41:36.631Z,0.30
2022-12-29T10:44:04.633Z,0.50
2022-12-29T10:46:37.301Z,0.40
2022-12-29T10:49:06.865Z,0.40
2022-12-29T10:51:40.215Z,0.35
2022-12-29T10:54:16.941Z,0.50
2022-12-29T10:56:48.059Z,0.30
2022-12-29T10:59:20.736Z,0.30
2022-12-29T11:02:00.102Z,0.50
2022-12-29T11:04:40.425Z,0.50
2022-12-29T11:07:15.660Z,0.32
2022-12-29T11:09:46.182Z,0.30
2022-12-29T11:12:22.929Z,0.30
2022-12-29T11:15:04.833Z,0.32
2022-12-29T11:17:45.631Z,0.30
2022-12-29T11:20:29.799Z,0.20
2022-12-29T11:22:59.242Z,0.40
2022-12-29T11:25:27.362Z,0.20
2022-12-29T11:27:59.948Z,0.40
2022-12-29T11:30:30.979Z,0.40
2022-12-29T11:33:00.263Z,0.40
2022-12-29T11:35:37.620Z,0.30
2022-12-29T11:38:21.885Z,0.40
2022-12-29T11:40:50.737Z,0.35
2022-12-29T11:43:26.016Z,0.30
2022-12-29T11:45:57.537Z,0.50
2022-12-29T11:48:30.327Z,0.60
2022-12-29T11:51:01.339Z,0.32
2022-12-29T11:53:40.247Z,0.40
2022-12-29T11:56:11.154Z,0.30
2022-12-29T11:58:40.557Z,0.30
2022-12-29T12:01:15.227Z,0.40
2022-12-29T12:03:50.162Z,0.30
2022-12-29T12:06:25.146Z,0.30
2022-12-29T12:08:58.525Z,0.28
2022-12-29T12:11:36.843Z,0.35
2022-12-29T12:14:14.312Z,0.40
2022-12-29T12:17:06.720Z,0.45
2022-12-29T12:19:40.086Z,0.40
2022-12-29T12:22:15.571Z,0.47
2022-12-29T12:24:50.429Z,0.50
2022-12-29T12:27:22.646Z,0.30
2022-12-29T12:29:58.916Z,0.60
2022-12-29T12:32:39.004Z,0.45
2022-12-29T12:35:07.472Z,0.73
2022-12-29T12:37:58.670Z,0.65
2022-12-29T12:40:51.845Z,0.75
2022-12-29T12:43:46.554Z,0.50
2022-12-29T12:46:33.186Z,0.68
2022-12-29T12:49:31.956Z,0.80
2022-12-29T12:52:11.118Z,0.73
2022-12-29T12:54:56.803Z,0.70
2022-12-29T12:57:38.913Z,0.50
2022-12-29T13:00:13.093Z,0.70
2022-12-29T13:02:54.349Z,0.68
2022-12-29T13:05:40.758Z,0.60
2022-12-29T13:08:33.738Z,0.82
2022-12-29T13:11:11.415Z,0.93
2022-12-29T13:13:58.608Z,1.00
2022-12-29T13:16:33.887Z,0.90
2022-12-29T13:19:11.022Z,0.90
2022-12-29T13:22:00.013Z,0.93
2022-12-29T13:24:42.334Z,0.70
2022-12-29T13:27:18.611Z,0.77
2022-12-29T13:29:58.167Z,0.80
2022-12-29T13:32:37.197Z,0.60
2022-12-29T13:35:18.950Z,0.80
2022-12-29T13:37:52.207Z,0.70
2022-12-29T13:40:26.253Z,0.73
2022-12-29T13:42:55.150Z,0.65
2022-12-29T13:45:27.512Z,0.40
2022-12-29T13:48:02.138Z,0.70
2022-12-29T13:50:34.306Z,0.50
2022-12-29T13:53:10.816Z,0.50
2022-12-29T13:55:47.606Z,0.40
2022-12-29T13:58:25.292Z,0.60
2022-12-29T14:01:00.146Z,0.47
2022-12-29T14:03:49.024Z,0.52
2022-12-29T14:06:22.102Z,0.52
2022-12-29T14:08:51.828Z,0.50
2022-12-29T14:11:25.438Z,0.40
2022-12-29T14:13:53.812Z,0.52
2022-12-29T14:16:32.752Z,0.55
2022-12-29T14:19:12.999Z,0.40
2022-12-29T14:21:42.177Z,0.35
2022-12-29T14:24:41.184Z,0.40
2022-12-29T14:27:42.678Z,0.40
2022-12-29T14:30:44.130Z,0.47
2022-12-29T14:33:16.698Z,0.50
2022-12-29T14:35:46.939Z,0.43
2022-12-29T14:38:26.620Z,0.32
2022-12-29T14:41:20.528Z,0.30
2022-12-29T14:43:59.538Z,0.50
2022-12-29T14:46:44.425Z,0.50
2022-12-29T14:49:19.223Z,0.50
2022-12-29T14:51:48.519Z,0.47
2022-12-29T14:54:50.328Z,0.75
2022-12-29T14:57:38.215Z,0.43
2022-12-29T15:00:18.339Z,0.30
2022-12-29T15:02:50.238Z,0.50
2022-12-29T15:05:33.943Z,0.47
2022-12-29T15:08:03.439Z,0.40
2022-12-29T15:10:39.358Z,0.50
2022-12-29T15:13:17.070Z,0.50
2022-12-29T15:15:45.182Z,0.40
2022-12-29T15:18:24.281Z,0.40
2022-12-29T15:20:57.709Z,0.52
2022-12-29T15:23:26.045Z,0.38
2022-12-29T15:25:57.576Z,0.40
2022-12-29T15:28:26.184Z,0.40
2022-12-29T15:30:56.432Z,0.50
2022-12-29T15:33:25.936Z,0.40
2022-12-29T15:35:57.609Z,0.40
2022-12-29T15:38:33.421Z,0.50
2022-12-29T15:41:08.908Z,0.40
2022-12-29T15:43:49.724Z,0.40
2022-12-29T15:46:18.244Z,0.40
2022-12-29T15:48:46.525Z,0.63
2022-12-29T15:51:22.212Z,0.47
2022-12-29T15:53:52.460Z,0.50
2022-12-29T15:56:20.574Z,0.30
2022-12-29T15:58:51.396Z,0.38
2022-12-29T16:01:21.495Z,0.40
2022-12-29T16:03:50.823Z,0.40
2022-12-29T16:06:32.088Z,0.40
2022-12-29T16:09:03.608Z,0.50
2022-12-29T16:11:35.859Z,0.40
2022-12-29T16:14:08.673Z,0.30
2022-12-29T16:16:40.520Z,0.50
2022-12-29T16:19:15.485Z,0.40
2022-12-29T16:21:45.634Z,0.68
2022-12-29T16:24:17.012Z,0.55
2022-12-29T16:26:50.443Z,0.77
2022-12-29T16:29:21.422Z,0.40
2022-12-29T16:32:01.566Z,0.60
2022-12-29T16:34:32.932Z,0.52
2022-12-29T16:37:04.751Z,0.40
2022-12-29T16:39:35.836Z,0.50
2022-12-29T16:42:37.605Z,0.40
2022-12-29T16:45:43.534Z,0.52
2022-12-29T16:48:22.000Z,0.50
2022-12-29T16:50:51.362Z,0.43
2022-12-29T16:53:25.936Z,0.68
2022-12-29T16:55:55.441Z,0.50
2022-12-29T16:58:28.539Z,0.55
2022-12-29T17:00:57.733Z,0.73
2022-12-29T17:03:33.319Z,0.60
2022-12-29T17:06:01.273Z,0.50
2022-12-29T17:08:30.685Z,0.38
2022-12-29T17:11:16.787Z,0.90
2022-12-29T17:13:44.858Z,0.68
2022-12-29T17:16:13.420Z,0.93
2022-12-29T17:18:41.402Z,0.50
2022-12-29T17:21:09.488Z,0.70
2022-12-29T17:23:38.849Z,0.60
2022-12-29T17:26:09.334Z,0.55
2022-12-29T17:28:37.332Z,0.68
2022-12-29T17:31:08.014Z,0.82
2022-12-29T17:33:38.659Z,1.05
2022-12-29T17:36:07.048Z,0.82
2022-12-29T17:38:38.487Z,0.70
2022-12-29T17:41:13.997Z,0.75
2022-12-29T17:43:42.175Z,0.93
2022-12-29T17:46:10.192Z,0.68
2022-12-29T17:48:38.300Z,0.90
2022-12-29T17:51:06.588Z,1.20
2022-12-29T17:53:34.554Z,0.90
2022-12-29T17:56:04.107Z,1.20
2022-12-29T17:58:33.828Z,1.42
2022-12-29T18:01:04.025Z,0.90
2022-12-29T18:03:35.607Z,1.10
2022-12-29T18:06:06.712Z,1.15
2022-12-29T18:08:36.044Z,0.90
2022-12-29T18:11:07.187Z,1.02
2022-12-29T18:13:45.945Z,0.88
2022-12-29T18:16:15.400Z,0.80
2022-12-29T18:18:43.583Z,0.70
2022-12-29T18:21:17.608Z,0.70
2022-12-29T18:23:46.227Z,0.70
2022-12-29T18:26:23.920Z,0.80
2022-12-29T18:28:55.556Z,0.80
2022-12-29T18:31:25.381Z,0.80
2022-12-29T18:33:54.872Z,0.80
2022-12-29T18:36:23.326Z,0.93
2022-12-29T18:38:53.295Z,0.80
2022-12-29T18:41:24.066Z,0.82
2022-12-29T18:43:52.423Z,0.90
2022-12-29T18:46:23.170Z,1.10
2022-12-29T18:48:51.804Z,1.10
2022-12-29T18:51:21.653Z,0.85
2022-12-29T18:53:50.828Z,0.73
2022-12-29T18:56:18.781Z,0.70
2022-12-29T18:58:48.128Z,0.73
2022-12-29T19:01:20.861Z,1.00
2022-12-29T19:03:49.433Z,0.70
2022-12-29T19:06:17.560Z,0.70
2022-12-29T19:08:45.588Z,1.00
2022-12-29T19:11:13.861Z,0.73
2022-12-29T19:13:41.808Z,0.60
2022-12-29T19:16:18.631Z,0.57
2022-12-29T19:18:58.284Z,0.55
2022-12-29T19:21:34.807Z,0.57
2022-12-29T19:24:02.819Z,0.77
2022-12-29T19:26:34.513Z,0.80
2022-12-29T19:29:03.314Z,0.50
2022-12-29T19:31:32.857Z,0.68
2022-12-29T19:34:02.038Z,0.60
2022-12-29T19:36:30.213Z,0.73
2022-12-29T19:38:58.311Z,0.80
2022-12-29T19:41:26.589Z,0.75
2022-12-29T19:43:54.652Z,0.80
2022-12-29T19:46:23.322Z,0.75
2022-12-29T19:48:54.837Z,0.50
2022-12-29T19:51:22.875Z,0.57
2022-12-29T19:53:50.888Z,0.90
2022-12-29T19:56:19.363Z,0.70
2022-12-29T19:58:47.973Z,0.85
2022-12-29T20:01:18.295Z,0.85
2022-12-29T20:03:46.548Z,0.60
2022-12-29T20:06:16.930Z,0.70
2022-12-29T20:08:45.036Z,0.80
2022-12-29T20:11:15.348Z,0.70
2022-12-29T20:13:43.853Z,0.80
2022-12-29T20:16:15.293Z,0.73
2022-12-29T20:18:44.394Z,1.30
2022-12-29T20:21:16.046Z,1.27
2022-12-29T20:23:45.031Z,0.80
2022-12-29T20:26:15.472Z,0.68
2022-12-29T20:28:43.891Z,1.15
2022-12-29T20:31:18.913Z,0.65
2022-12-29T20:33:47.352Z,0.90
2022-12-29T20:36:19.120Z,0.80
2022-12-29T20:38:49.528Z,0.60
2022-12-29T20:41:17.934Z,0.98
2022-12-29T20:43:46.305Z,0.80
2022-12-29T20:46:20.505Z,0.95
2022-12-29T20:48:50.198Z,0.70
2022-12-29T20:51:21.004Z,0.85
2022-12-29T20:53:49.595Z,1.23
2022-12-29T20:56:19.973Z,0.90
2022-12-29T21:01:38.050Z,0.90
2022-12-29T21:04:06.651Z,0.88
2022-12-29T21:06:36.591Z,0.90
2022-12-29T21:09:05.546Z,0.90
2022-12-29T21:11:33.511Z,0.95
2022-12-29T21:14:01.683Z,0.80
2022-12-29T21:16:30.271Z,0.73
2022-12-29T21:18:58.219Z,0.90
2022-12-29T21:21:27.737Z,0.95
2022-12-29T21:24:05.426Z,0.90
2022-12-29T21:26:35.050Z,0.73
2022-12-29T21:29:04.354Z,1.00
2022-12-29T21:31:35.783Z,0.70
2022-12-29T21:34:05.271Z,0.60
2022-12-29T21:36:34.160Z,0.70
2022-12-29T21:39:04.327Z,0.85
2022-12-29T21:41:32.665Z,0.70
2022-12-29T21:44:18.881Z,0.63
2022-12-29T21:46:48.816Z,0.90
2022-12-29T21:49:17.183Z,0.75
2022-12-29T21:51:51.528Z,0.90
2022-12-29T21:54:40.494Z,0.80
2022-12-29T21:57:09.185Z,0.82
2022-12-29T21:59:54.445Z,0.80
2022-12-29T22:02:42.003Z,0.82
2022-12-29T22:05:29.645Z,0.80
2022-12-29T22:08:15.275Z,0.70
2022-12-29T22:11:04.217Z,0.98
2022-12-29T22:13:33.049Z,0.90
2022-12-29T22:16:03.653Z,0.82
2022-12-29T22:18:31.760Z,0.80
2022-12-29T22:20:59.707Z,0.60
2022-12-29T22:23:27.811Z,0.95
2022-12-29T22:25:57.096Z,0.85
2022-12-29T22:28:25.287Z,1.02
2022-12-29T22:30:53.378Z,0.70
2022-12-29T22:33:21.427Z,0.80
2022-12-29T22:35:49.376Z,0.90
2022-12-29T22:38:17.327Z,1.20
2022-12-29T22:40:45.273Z,0.90
2022-12-29T22:43:14.656Z,0.68
2022-12-29T22:45:42.799Z,1.17
2022-12-29T22:48:10.770Z,1.08
2022-12-29T22:50:40.370Z,1.20
2022-12-29T22:53:08.310Z,1.13
2022-12-29T22:55:36.326Z,0.82
2022-12-29T22:58:04.456Z,1.17
2022-12-29T23:00:34.406Z,0.80
2022-12-29T23:03:02.589Z,0.80
2022-12-29T23:05:30.797Z,0.98
2022-12-29T23:07:58.771Z,0.70
2022-12-29T23:10:27.063Z,0.73
2022-12-29T23:12:55.108Z,1.10
2022-12-29T23:15:23.087Z,0.70
2022-12-29T23:17:52.358Z,1.02
2022-12-29T23:20:20.263Z,0.90
2022-12-29T23:22:48.341Z,0.70
2022-12-29T23:25:16.408Z,0.90
2022-12-29T23:27:44.351Z,0.60
2022-12-29T23:30:12.711Z,0.75
2022-12-29T23:32:40.655Z,0.80
2022-12-29T23:35:11.695Z,1.02
2022-12-29T23:37:39.639Z,0.88
2022-12-29T23:40:08.820Z,0.68
2022-12-29T23:42:36.781Z,1.00
2022-12-29T23:45:06.695Z,0.60
2022-12-29T23:47:34.675Z,0.70
2022-12-29T23:50:02.626Z,0.60
2022-12-29T23:52:31.978Z,0.70
2022-12-29T23:54:59.998Z,0.80
2022-12-29T23:57:27.977Z,0.82
2022-12-29T23:59:56.016Z,0.98
